sensor_id;sensor_type;location;lat;lon;timestamp;temperature;humidity
42755;DHT22;28407;51.830;5.684;2024-01-30T00:02:00;8.40;89.50
42755;DHT22;28407;51.830;5.684;2024-01-30T00:04:01;8.40;89.50
42755;DHT22;28407;51.830;5.684;2024-01-30T00:06:03;8.40;89.50
42755;DHT22;28407;51.830;5.684;2024-01-30T00:08:06;8.40;89.60
42755;DHT22;28407;51.830;5.684;2024-01-30T00:10:07;8.40;89.60
42755;DHT22;28407;51.830;5.684;2024-01-30T00:12:08;8.40;89.70
42755;DHT22;28407;51.830;5.684;2024-01-30T00:14:09;8.40;89.70
42755;DHT22;28407;51.830;5.684;2024-01-30T00:16:20;8.40;89.70
42755;DHT22;28407;51.830;5.684;2024-01-30T00:18:27;8.40;89.70
42755;DHT22;28407;51.830;5.684;2024-01-30T00:20:29;8.30;89.60
42755;DHT22;28407;51.830;5.684;2024-01-30T00:22:29;8.30;89.60
42755;DHT22;28407;51.830;5.684;2024-01-30T00:24:30;8.30;89.70
42755;DHT22;28407;51.830;5.684;2024-01-30T00:26:34;8.30;89.60
42755;DHT22;28407;51.830;5.684;2024-01-30T00:28:35;8.30;89.60
42755;DHT22;28407;51.830;5.684;2024-01-30T00:30:36;8.30;89.70
42755;DHT22;28407;51.830;5.684;2024-01-30T00:32:36;8.30;89.70
42755;DHT22;28407;51.830;5.684;2024-01-30T00:34:37;8.20;89.60
42755;DHT22;28407;51.830;5.684;2024-01-30T00:36:38;8.20;89.70
42755;DHT22;28407;51.830;5.684;2024-01-30T00:38:41;8.20;89.70
42755;DHT22;28407;51.830;5.684;2024-01-30T00:40:45;8.20;89.70
42755;DHT22;28407;51.830;5.684;2024-01-30T00:42:48;8.20;89.60
42755;DHT22;28407;51.830;5.684;2024-01-30T00:44:54;8.30;89.70
42755;DHT22;28407;51.830;5.684;2024-01-30T00:46:55;8.30;89.60
42755;DHT22;28407;51.830;5.684;2024-01-30T00:48:56;8.30;89.60
42755;DHT22;28407;51.830;5.684;2024-01-30T00:50:59;8.30;89.50
42755;DHT22;28407;51.830;5.684;2024-01-30T00:53:00;8.30;89.50
42755;DHT22;28407;51.830;5.684;2024-01-30T00:55:01;8.30;89.50
42755;DHT22;28407;51.830;5.684;2024-01-30T00:57:03;8.30;89.50
42755;DHT22;28407;51.830;5.684;2024-01-30T00:59:04;8.30;89.40
42755;DHT22;28407;51.830;5.684;2024-01-30T01:01:04;8.30;89.40
42755;DHT22;28407;51.830;5.684;2024-01-30T01:03:08;8.30;89.50
42755;DHT22;28407;51.830;5.684;2024-01-30T01:05:09;8.30;89.40
42755;DHT22;28407;51.830;5.684;2024-01-30T01:07:11;8.30;89.40
42755;DHT22;28407;51.830;5.684;2024-01-30T01:09:11;8.30;89.40
42755;DHT22;28407;51.830;5.684;2024-01-30T01:11:12;8.30;89.40
42755;DHT22;28407;51.830;5.684;2024-01-30T01:13:13;8.30;89.50
42755;DHT22;28407;51.830;5.684;2024-01-30T01:15:14;8.30;89.50
42755;DHT22;28407;51.830;5.684;2024-01-30T01:17:17;8.30;89.50
42755;DHT22;28407;51.830;5.684;2024-01-30T01:19:19;8.30;89.50
42755;DHT22;28407;51.830;5.684;2024-01-30T01:21:20;8.30;89.50
42755;DHT22;28407;51.830;5.684;2024-01-30T01:23:23;8.30;89.50
42755;DHT22;28407;51.830;5.684;2024-01-30T01:25:29;8.30;89.50
42755;DHT22;28407;51.830;5.684;2024-01-30T01:27:30;8.30;89.50
42755;DHT22;28407;51.830;5.684;2024-01-30T01:29:32;8.30;89.50
42755;DHT22;28407;51.830;5.684;2024-01-30T01:31:33;8.30;89.50
42755;DHT22;28407;51.830;5.684;2024-01-30T01:33:34;8.30;89.40
42755;DHT22;28407;51.830;5.684;2024-01-30T01:35:39;8.30;89.50
42755;DHT22;28407;51.830;5.684;2024-01-30T01:37:40;8.30;89.50
42755;DHT22;28407;51.830;5.684;2024-01-30T01:39:43;8.30;89.50
42755;DHT22;28407;51.830;5.684;2024-01-30T01:41:44;8.30;89.50
42755;DHT22;28407;51.830;5.684;2024-01-30T01:43:45;8.30;89.50
42755;DHT22;28407;51.830;5.684;2024-01-30T01:45:46;8.30;89.40
42755;DHT22;28407;51.830;5.684;2024-01-30T01:47:53;8.30;89.40
42755;DHT22;28407;51.830;5.684;2024-01-30T01:49:53;8.30;89.40
42755;DHT22;28407;51.830;5.684;2024-01-30T01:51:58;8.30;89.40
42755;DHT22;28407;51.830;5.684;2024-01-30T01:54:03;8.30;89.30
42755;DHT22;28407;51.830;5.684;2024-01-30T01:56:05;8.30;89.30
42755;DHT22;28407;51.830;5.684;2024-01-30T01:58:09;8.30;89.30
42755;DHT22;28407;51.830;5.684;2024-01-30T02:00:13;8.30;89.90
42755;DHT22;28407;51.830;5.684;2024-01-30T02:02:14;8.30;89.30
42755;DHT22;28407;51.830;5.684;2024-01-30T02:04:17;8.30;89.30
42755;DHT22;28407;51.830;5.684;2024-01-30T02:06:17;8.30;89.30
42755;DHT22;28407;51.830;5.684;2024-01-30T02:08:19;8.30;89.90
42755;DHT22;28407;51.830;5.684;2024-01-30T02:10:19;8.30;89.20
42755;DHT22;28407;51.830;5.684;2024-01-30T02:12:20;8.30;89.30
42755;DHT22;28407;51.830;5.684;2024-01-30T02:14:21;8.30;89.20
42755;DHT22;28407;51.830;5.684;2024-01-30T02:16:22;8.30;89.20
42755;DHT22;28407;51.830;5.684;2024-01-30T02:18:22;8.30;89.20
42755;DHT22;28407;51.830;5.684;2024-01-30T02:20:30;8.40;89.20
42755;DHT22;28407;51.830;5.684;2024-01-30T02:22:33;8.40;89.20
42755;DHT22;28407;51.830;5.684;2024-01-30T02:24:34;8.40;89.10
42755;DHT22;28407;51.830;5.684;2024-01-30T02:26:35;8.30;89.10
42755;DHT22;28407;51.830;5.684;2024-01-30T02:28:36;8.40;89.10
42755;DHT22;28407;51.830;5.684;2024-01-30T02:30:44;8.40;89.10
42755;DHT22;28407;51.830;5.684;2024-01-30T02:32:44;8.40;89.10
42755;DHT22;28407;51.830;5.684;2024-01-30T02:34:45;8.40;89.10
42755;DHT22;28407;51.830;5.684;2024-01-30T02:36:46;8.40;89.00
42755;DHT22;28407;51.830;5.684;2024-01-30T02:38:46;8.40;89.10
42755;DHT22;28407;51.830;5.684;2024-01-30T02:40:47;8.40;89.10
42755;DHT22;28407;51.830;5.684;2024-01-30T02:42:48;8.40;89.00
42755;DHT22;28407;51.830;5.684;2024-01-30T02:44:48;8.40;89.00
42755;DHT22;28407;51.830;5.684;2024-01-30T02:46:49;8.40;89.00
42755;DHT22;28407;51.830;5.684;2024-01-30T02:48:50;8.40;89.00
42755;DHT22;28407;51.830;5.684;2024-01-30T02:50:56;8.40;89.00
42755;DHT22;28407;51.830;5.684;2024-01-30T02:52:58;8.40;89.00
42755;DHT22;28407;51.830;5.684;2024-01-30T02:54:59;8.40;89.00
42755;DHT22;28407;51.830;5.684;2024-01-30T02:57:03;8.40;89.00
42755;DHT22;28407;51.830;5.684;2024-01-30T02:59:03;8.40;88.90
42755;DHT22;28407;51.830;5.684;2024-01-30T03:01:07;8.40;89.00
42755;DHT22;28407;51.830;5.684;2024-01-30T03:03:08;8.40;89.00
42755;DHT22;28407;51.830;5.684;2024-01-30T03:05:08;8.40;89.00
42755;DHT22;28407;51.830;5.684;2024-01-30T03:07:09;8.40;89.10
42755;DHT22;28407;51.830;5.684;2024-01-30T03:09:10;8.30;89.00
42755;DHT22;28407;51.830;5.684;2024-01-30T03:11:11;8.30;89.00
42755;DHT22;28407;51.830;5.684;2024-01-30T03:13:11;8.40;89.10
42755;DHT22;28407;51.830;5.684;2024-01-30T03:15:12;8.30;89.00
42755;DHT22;28407;51.830;5.684;2024-01-30T03:17:22;8.30;89.10
42755;DHT22;28407;51.830;5.684;2024-01-30T03:19:22;8.30;89.10
42755;DHT22;28407;51.830;5.684;2024-01-30T03:21:23;8.30;89.10
42755;DHT22;28407;51.830;5.684;2024-01-30T03:23:24;8.30;89.10
42755;DHT22;28407;51.830;5.684;2024-01-30T03:25:24;8.30;89.10
42755;DHT22;28407;51.830;5.684;2024-01-30T03:27:28;8.40;89.10
42755;DHT22;28407;51.830;5.684;2024-01-30T03:29:29;8.40;89.10
42755;DHT22;28407;51.830;5.684;2024-01-30T03:31:30;8.30;89.00
42755;DHT22;28407;51.830;5.684;2024-01-30T03:33:31;8.40;89.00
42755;DHT22;28407;51.830;5.684;2024-01-30T03:35:31;8.40;89.00
42755;DHT22;28407;51.830;5.684;2024-01-30T03:37:32;8.40;89.00
42755;DHT22;28407;51.830;5.684;2024-01-30T03:39:33;8.40;89.00
42755;DHT22;28407;51.830;5.684;2024-01-30T03:41:33;8.40;89.00
42755;DHT22;28407;51.830;5.684;2024-01-30T03:43:34;8.40;89.00
42755;DHT22;28407;51.830;5.684;2024-01-30T03:45:35;8.40;89.00
42755;DHT22;28407;51.830;5.684;2024-01-30T03:47:35;8.40;88.90
42755;DHT22;28407;51.830;5.684;2024-01-30T03:49:36;8.40;88.90
42755;DHT22;28407;51.830;5.684;2024-01-30T03:51:37;8.40;88.90
42755;DHT22;28407;51.830;5.684;2024-01-30T03:53:37;8.40;88.90
42755;DHT22;28407;51.830;5.684;2024-01-30T03:55:38;8.40;88.90
42755;DHT22;28407;51.830;5.684;2024-01-30T03:57:38;8.40;88.90
42755;DHT22;28407;51.830;5.684;2024-01-30T03:59:42;8.40;88.90
42755;DHT22;28407;51.830;5.684;2024-01-30T04:01:43;8.40;88.90
42755;DHT22;28407;51.830;5.684;2024-01-30T04:03:43;8.40;88.90
42755;DHT22;28407;51.830;5.684;2024-01-30T04:05:45;8.40;88.90
42755;DHT22;28407;51.830;5.684;2024-01-30T04:07:45;8.40;88.90
42755;DHT22;28407;51.830;5.684;2024-01-30T04:09:46;8.40;88.90
42755;DHT22;28407;51.830;5.684;2024-01-30T04:11:47;8.40;89.00
42755;DHT22;28407;51.830;5.684;2024-01-30T04:13:47;8.40;89.00
42755;DHT22;28407;51.830;5.684;2024-01-30T04:15:48;8.30;89.00
42755;DHT22;28407;51.830;5.684;2024-01-30T04:17:49;8.40;89.00
42755;DHT22;28407;51.830;5.684;2024-01-30T04:19:50;8.30;89.00
42755;DHT22;28407;51.830;5.684;2024-01-30T04:21:50;8.40;89.10
42755;DHT22;28407;51.830;5.684;2024-01-30T04:23:53;8.30;89.00
42755;DHT22;28407;51.830;5.684;2024-01-30T04:25:54;8.40;89.10
42755;DHT22;28407;51.830;5.684;2024-01-30T04:27:54;8.30;89.00
42755;DHT22;28407;51.830;5.684;2024-01-30T04:29:55;8.40;89.10
42755;DHT22;28407;51.830;5.684;2024-01-30T04:31:56;8.40;89.10
42755;DHT22;28407;51.830;5.684;2024-01-30T04:33:56;8.40;89.10
42755;DHT22;28407;51.830;5.684;2024-01-30T04:35:57;8.30;89.10
42755;DHT22;28407;51.830;5.684;2024-01-30T04:37:58;8.40;89.10
42755;DHT22;28407;51.830;5.684;2024-01-30T04:39:59;8.40;89.10
42755;DHT22;28407;51.830;5.684;2024-01-30T04:41:59;8.40;89.00
42755;DHT22;28407;51.830;5.684;2024-01-30T04:44:00;8.40;89.10
42755;DHT22;28407;51.830;5.684;2024-01-30T04:46:01;8.40;89.00
42755;DHT22;28407;51.830;5.684;2024-01-30T04:48:02;8.40;89.00
42755;DHT22;28407;51.830;5.684;2024-01-30T04:50:03;8.40;88.90
42755;DHT22;28407;51.830;5.684;2024-01-30T04:52:06;8.40;88.90
42755;DHT22;28407;51.830;5.684;2024-01-30T04:54:07;8.40;88.90
42755;DHT22;28407;51.830;5.684;2024-01-30T04:56:08;8.40;88.90
42755;DHT22;28407;51.830;5.684;2024-01-30T04:58:09;8.40;88.90
42755;DHT22;28407;51.830;5.684;2024-01-30T05:00:10;8.50;88.90
42755;DHT22;28407;51.830;5.684;2024-01-30T05:02:10;8.50;88.90
42755;DHT22;28407;51.830;5.684;2024-01-30T05:04:11;8.50;88.90
42755;DHT22;28407;51.830;5.684;2024-01-30T05:06:12;8.50;88.90
42755;DHT22;28407;51.830;5.684;2024-01-30T05:08:13;8.50;88.90
42755;DHT22;28407;51.830;5.684;2024-01-30T05:10:13;8.50;88.90
42755;DHT22;28407;51.830;5.684;2024-01-30T05:12:14;8.50;88.90
42755;DHT22;28407;51.830;5.684;2024-01-30T05:14:15;8.50;88.90
42755;DHT22;28407;51.830;5.684;2024-01-30T05:16:16;8.50;88.90
42755;DHT22;28407;51.830;5.684;2024-01-30T05:18:18;8.50;88.90
42755;DHT22;28407;51.830;5.684;2024-01-30T05:20:19;8.50;88.90
42755;DHT22;28407;51.830;5.684;2024-01-30T05:22:20;8.50;88.90
42755;DHT22;28407;51.830;5.684;2024-01-30T05:24:21;8.50;88.90
42755;DHT22;28407;51.830;5.684;2024-01-30T05:26:22;8.50;89.00
42755;DHT22;28407;51.830;5.684;2024-01-30T05:28:23;8.50;89.00
42755;DHT22;28407;51.830;5.684;2024-01-30T05:30:24;8.50;89.10
42755;DHT22;28407;51.830;5.684;2024-01-30T05:32:24;8.50;89.00
42755;DHT22;28407;51.830;5.684;2024-01-30T05:34:25;8.50;89.10
42755;DHT22;28407;51.830;5.684;2024-01-30T05:36:26;8.50;89.10
42755;DHT22;28407;51.830;5.684;2024-01-30T05:38:27;8.50;89.10
42755;DHT22;28407;51.830;5.684;2024-01-30T05:40:27;8.50;89.00
42755;DHT22;28407;51.830;5.684;2024-01-30T05:42:28;8.50;89.10
42755;DHT22;28407;51.830;5.684;2024-01-30T05:44:29;8.50;89.00
42755;DHT22;28407;51.830;5.684;2024-01-30T05:46:29;8.60;89.10
42755;DHT22;28407;51.830;5.684;2024-01-30T05:48:30;8.50;89.00
42755;DHT22;28407;51.830;5.684;2024-01-30T05:50:31;8.60;89.10
42755;DHT22;28407;51.830;5.684;2024-01-30T05:52:32;8.60;89.10
42755;DHT22;28407;51.830;5.684;2024-01-30T05:54:34;8.60;89.00
42755;DHT22;28407;51.830;5.684;2024-01-30T05:56:35;8.50;89.00
42755;DHT22;28407;51.830;5.684;2024-01-30T05:58:36;8.60;89.00
42755;DHT22;28407;51.830;5.684;2024-01-30T06:00:37;8.60;89.70
42755;DHT22;28407;51.830;5.684;2024-01-30T06:02:38;8.60;89.10
42755;DHT22;28407;51.830;5.684;2024-01-30T06:04:39;8.60;89.10
42755;DHT22;28407;51.830;5.684;2024-01-30T06:06:40;8.60;89.10
42755;DHT22;28407;51.830;5.684;2024-01-30T06:08:41;8.60;89.10
42755;DHT22;28407;51.830;5.684;2024-01-30T06:10:42;8.60;89.20
42755;DHT22;28407;51.830;5.684;2024-01-30T06:12:45;8.60;89.20
42755;DHT22;28407;51.830;5.684;2024-01-30T06:14:46;8.60;89.20
42755;DHT22;28407;51.830;5.684;2024-01-30T06:16:47;8.60;89.20
42755;DHT22;28407;51.830;5.684;2024-01-30T06:18:47;8.60;89.20
42755;DHT22;28407;51.830;5.684;2024-01-30T06:20:48;8.60;89.20
42755;DHT22;28407;51.830;5.684;2024-01-30T06:22:49;8.60;89.20
42755;DHT22;28407;51.830;5.684;2024-01-30T06:24:49;8.60;89.20
42755;DHT22;28407;51.830;5.684;2024-01-30T06:26:50;8.60;89.20
42755;DHT22;28407;51.830;5.684;2024-01-30T06:28:51;8.60;89.20
42755;DHT22;28407;51.830;5.684;2024-01-30T06:30:52;8.60;89.30
42755;DHT22;28407;51.830;5.684;2024-01-30T06:32:52;8.60;89.30
42755;DHT22;28407;51.830;5.684;2024-01-30T06:34:53;8.60;89.20
42755;DHT22;28407;51.830;5.684;2024-01-30T06:36:54;8.60;89.20
42755;DHT22;28407;51.830;5.684;2024-01-30T06:38:55;8.70;89.30
42755;DHT22;28407;51.830;5.684;2024-01-30T06:40:55;8.70;89.30
42755;DHT22;28407;51.830;5.684;2024-01-30T06:42:56;8.70;89.30
42755;DHT22;28407;51.830;5.684;2024-01-30T06:44:57;8.70;89.30
42755;DHT22;28407;51.830;5.684;2024-01-30T06:46:58;8.70;89.30
42755;DHT22;28407;51.830;5.684;2024-01-30T06:48:58;8.60;89.30
42755;DHT22;28407;51.830;5.684;2024-01-30T06:50:59;8.70;89.30
42755;DHT22;28407;51.830;5.684;2024-01-30T06:53:00;8.70;90.00
42755;DHT22;28407;51.830;5.684;2024-01-30T06:55:00;8.70;89.40
42755;DHT22;28407;51.830;5.684;2024-01-30T06:57:01;8.70;89.40
42755;DHT22;28407;51.830;5.684;2024-01-30T06:59:02;8.70;89.40
42755;DHT22;28407;51.830;5.684;2024-01-30T07:01:03;8.70;89.50
42755;DHT22;28407;51.830;5.684;2024-01-30T07:03:04;8.70;89.50
42755;DHT22;28407;51.830;5.684;2024-01-30T07:05:05;8.70;89.50
42755;DHT22;28407;51.830;5.684;2024-01-30T07:07:06;8.70;89.50
42755;DHT22;28407;51.830;5.684;2024-01-30T07:09:12;8.70;89.50
42755;DHT22;28407;51.830;5.684;2024-01-30T07:11:20;8.70;89.50
42755;DHT22;28407;51.830;5.684;2024-01-30T07:13:22;8.70;89.50
42755;DHT22;28407;51.830;5.684;2024-01-30T07:15:23;8.70;89.50
42755;DHT22;28407;51.830;5.684;2024-01-30T07:17:24;8.70;89.50
42755;DHT22;28407;51.830;5.684;2024-01-30T07:19:25;8.70;89.50
42755;DHT22;28407;51.830;5.684;2024-01-30T07:21:25;8.70;89.60
42755;DHT22;28407;51.830;5.684;2024-01-30T07:23:28;8.70;89.60
42755;DHT22;28407;51.830;5.684;2024-01-30T07:25:30;8.70;89.60
42755;DHT22;28407;51.830;5.684;2024-01-30T07:27:31;8.70;89.60
42755;DHT22;28407;51.830;5.684;2024-01-30T07:29:31;8.70;89.60
42755;DHT22;28407;51.830;5.684;2024-01-30T07:31:32;8.70;89.70
42755;DHT22;28407;51.830;5.684;2024-01-30T07:33:33;8.70;89.60
42755;DHT22;28407;51.830;5.684;2024-01-30T07:35:34;8.70;89.60
42755;DHT22;28407;51.830;5.684;2024-01-30T07:37:35;8.70;89.60
42755;DHT22;28407;51.830;5.684;2024-01-30T07:39:35;8.70;89.60
42755;DHT22;28407;51.830;5.684;2024-01-30T07:41:36;8.70;89.60
42755;DHT22;28407;51.830;5.684;2024-01-30T07:43:38;8.70;89.60
42755;DHT22;28407;51.830;5.684;2024-01-30T07:45:39;8.70;90.10
42755;DHT22;28407;51.830;5.684;2024-01-30T07:47:40;8.70;89.70
42755;DHT22;28407;51.830;5.684;2024-01-30T07:49:40;8.80;89.70
42755;DHT22;28407;51.830;5.684;2024-01-30T07:51:44;8.80;89.70
42755;DHT22;28407;51.830;5.684;2024-01-30T07:53:51;8.80;89.70
42755;DHT22;28407;51.830;5.684;2024-01-30T07:55:52;8.80;89.70
42755;DHT22;28407;51.830;5.684;2024-01-30T07:57:53;8.80;89.70
42755;DHT22;28407;51.830;5.684;2024-01-30T07:59:54;8.80;89.70
42755;DHT22;28407;51.830;5.684;2024-01-30T08:02:06;8.80;89.70
42755;DHT22;28407;51.830;5.684;2024-01-30T08:04:06;8.80;89.70
42755;DHT22;28407;51.830;5.684;2024-01-30T08:06:07;8.80;89.70
42755;DHT22;28407;51.830;5.684;2024-01-30T08:08:08;8.90;89.70
42755;DHT22;28407;51.830;5.684;2024-01-30T08:10:11;8.90;89.70
42755;DHT22;28407;51.830;5.684;2024-01-30T08:12:11;8.90;90.00
42755;DHT22;28407;51.830;5.684;2024-01-30T08:14:13;8.90;89.60
42755;DHT22;28407;51.830;5.684;2024-01-30T08:16:14;8.90;89.60
42755;DHT22;28407;51.830;5.684;2024-01-30T08:18:15;9.00;89.60
42755;DHT22;28407;51.830;5.684;2024-01-30T08:20:16;9.00;89.60
42755;DHT22;28407;51.830;5.684;2024-01-30T08:22:17;9.00;89.70
42755;DHT22;28407;51.830;5.684;2024-01-30T08:24:18;9.10;89.60
42755;DHT22;28407;51.830;5.684;2024-01-30T08:26:18;9.10;89.60
42755;DHT22;28407;51.830;5.684;2024-01-30T08:28:19;9.10;89.50
42755;DHT22;28407;51.830;5.684;2024-01-30T08:30:20;9.20;89.50
42755;DHT22;28407;51.830;5.684;2024-01-30T08:32:21;9.20;89.50
42755;DHT22;28407;51.830;5.684;2024-01-30T08:34:21;9.20;89.50
42755;DHT22;28407;51.830;5.684;2024-01-30T08:36:23;9.20;89.50
42755;DHT22;28407;51.830;5.684;2024-01-30T08:38:23;9.20;89.50
42755;DHT22;28407;51.830;5.684;2024-01-30T08:40:24;9.30;89.60
42755;DHT22;28407;51.830;5.684;2024-01-30T08:42:25;9.30;89.60
42755;DHT22;28407;51.830;5.684;2024-01-30T08:44:26;9.30;89.60
42755;DHT22;28407;51.830;5.684;2024-01-30T08:46:27;9.30;89.60
42755;DHT22;28407;51.830;5.684;2024-01-30T08:48:29;9.30;89.60
42755;DHT22;28407;51.830;5.684;2024-01-30T08:50:29;9.30;89.60
42755;DHT22;28407;51.830;5.684;2024-01-30T08:52:30;9.30;89.60
42755;DHT22;28407;51.830;5.684;2024-01-30T08:54:31;9.40;89.60
42755;DHT22;28407;51.830;5.684;2024-01-30T08:56:34;9.40;89.70
42755;DHT22;28407;51.830;5.684;2024-01-30T08:58:35;9.40;90.10
42755;DHT22;28407;51.830;5.684;2024-01-30T09:00:38;9.50;89.90
42755;DHT22;28407;51.830;5.684;2024-01-30T09:02:39;9.50;89.60
42755;DHT22;28407;51.830;5.684;2024-01-30T09:04:40;9.50;89.60
42755;DHT22;28407;51.830;5.684;2024-01-30T09:06:41;9.50;89.60
42755;DHT22;28407;51.830;5.684;2024-01-30T09:08:41;9.60;89.60
42755;DHT22;28407;51.830;5.684;2024-01-30T09:10:42;9.60;89.60
42755;DHT22;28407;51.830;5.684;2024-01-30T09:12:45;9.60;89.60
42755;DHT22;28407;51.830;5.684;2024-01-30T09:14:45;9.60;89.60
42755;DHT22;28407;51.830;5.684;2024-01-30T09:16:46;9.70;89.60
42755;DHT22;28407;51.830;5.684;2024-01-30T09:18:48;9.70;89.60
42755;DHT22;28407;51.830;5.684;2024-01-30T09:20:50;9.70;89.60
42755;DHT22;28407;51.830;5.684;2024-01-30T09:22:50;9.70;89.50
42755;DHT22;28407;51.830;5.684;2024-01-30T09:24:51;9.80;89.50
42755;DHT22;28407;51.830;5.684;2024-01-30T09:26:52;9.80;89.50
42755;DHT22;28407;51.830;5.684;2024-01-30T09:28:52;9.80;89.40
42755;DHT22;28407;51.830;5.684;2024-01-30T09:30:53;9.90;89.50
42755;DHT22;28407;51.830;5.684;2024-01-30T09:32:54;9.90;89.50
42755;DHT22;28407;51.830;5.684;2024-01-30T09:34:54;9.90;89.40
42755;DHT22;28407;51.830;5.684;2024-01-30T09:36:55;9.90;89.40
42755;DHT22;28407;51.830;5.684;2024-01-30T09:38:58;9.90;89.40
42755;DHT22;28407;51.830;5.684;2024-01-30T09:41:03;10.00;89.60
42755;DHT22;28407;51.830;5.684;2024-01-30T09:43:08;10.00;89.50
42755;DHT22;28407;51.830;5.684;2024-01-30T09:45:10;10.00;89.50
42755;DHT22;28407;51.830;5.684;2024-01-30T09:47:12;10.00;89.50
42755;DHT22;28407;51.830;5.684;2024-01-30T09:49:13;10.00;89.40
42755;DHT22;28407;51.830;5.684;2024-01-30T09:51:15;10.00;89.30
42755;DHT22;28407;51.830;5.684;2024-01-30T09:53:16;10.00;89.40
42755;DHT22;28407;51.830;5.684;2024-01-30T09:55:18;10.00;89.40
42755;DHT22;28407;51.830;5.684;2024-01-30T09:57:19;10.00;89.30
42755;DHT22;28407;51.830;5.684;2024-01-30T09:59:20;10.10;89.30
42755;DHT22;28407;51.830;5.684;2024-01-30T10:01:20;10.10;90.00
42755;DHT22;28407;51.830;5.684;2024-01-30T10:03:21;10.10;89.30
42755;DHT22;28407;51.830;5.684;2024-01-30T10:05:26;10.20;89.40
42755;DHT22;28407;51.830;5.684;2024-01-30T10:07:28;10.30;89.40
42755;DHT22;28407;51.830;5.684;2024-01-30T10:09:33;10.30;89.30
42755;DHT22;28407;51.830;5.684;2024-01-30T10:11:36;10.30;89.20
42755;DHT22;28407;51.830;5.684;2024-01-30T10:13:38;10.40;89.20
42755;DHT22;28407;51.830;5.684;2024-01-30T10:15:39;10.30;89.20
42755;DHT22;28407;51.830;5.684;2024-01-30T10:17:41;10.40;89.20
42755;DHT22;28407;51.830;5.684;2024-01-30T10:19:42;10.40;89.20
42755;DHT22;28407;51.830;5.684;2024-01-30T10:21:42;10.40;89.30
42755;DHT22;28407;51.830;5.684;2024-01-30T10:23:44;10.50;89.30
42755;DHT22;28407;51.830;5.684;2024-01-30T10:25:45;10.50;89.30
42755;DHT22;28407;51.830;5.684;2024-01-30T10:27:46;10.50;89.40
42755;DHT22;28407;51.830;5.684;2024-01-30T10:29:48;10.50;89.40
42755;DHT22;28407;51.830;5.684;2024-01-30T10:32:02;10.50;89.30
42755;DHT22;28407;51.830;5.684;2024-01-30T10:34:05;10.60;89.40
42755;DHT22;28407;51.830;5.684;2024-01-30T10:36:06;10.60;89.40
42755;DHT22;28407;51.830;5.684;2024-01-30T10:38:10;10.60;89.40
42755;DHT22;28407;51.830;5.684;2024-01-30T10:40:14;10.60;90.00
42755;DHT22;28407;51.830;5.684;2024-01-30T10:42:18;10.60;89.50
42755;DHT22;28407;51.830;5.684;2024-01-30T10:44:19;10.60;89.50
42755;DHT22;28407;51.830;5.684;2024-01-30T10:46:30;10.60;89.50
42755;DHT22;28407;51.830;5.684;2024-01-30T10:48:35;10.70;89.50
42755;DHT22;28407;51.830;5.684;2024-01-30T10:50:38;10.70;89.50
42755;DHT22;28407;51.830;5.684;2024-01-30T10:52:41;10.70;90.00
42755;DHT22;28407;51.830;5.684;2024-01-30T10:54:44;10.70;89.50
42755;DHT22;28407;51.830;5.684;2024-01-30T10:56:45;10.80;89.50
42755;DHT22;28407;51.830;5.684;2024-01-30T10:58:53;10.80;89.40
42755;DHT22;28407;51.830;5.684;2024-01-30T11:00:55;10.80;89.40
42755;DHT22;28407;51.830;5.684;2024-01-30T11:02:56;10.80;89.40
42755;DHT22;28407;51.830;5.684;2024-01-30T11:04:58;10.80;89.40
42755;DHT22;28407;51.830;5.684;2024-01-30T11:07:00;10.90;89.40
42755;DHT22;28407;51.830;5.684;2024-01-30T11:09:05;10.90;89.40
42755;DHT22;28407;51.830;5.684;2024-01-30T11:11:11;10.90;89.30
42755;DHT22;28407;51.830;5.684;2024-01-30T11:13:13;11.00;89.30
42755;DHT22;28407;51.830;5.684;2024-01-30T11:15:16;11.00;89.30
42755;DHT22;28407;51.830;5.684;2024-01-30T11:17:17;11.00;89.20
42755;DHT22;28407;51.830;5.684;2024-01-30T11:19:25;11.10;89.10
42755;DHT22;28407;51.830;5.684;2024-01-30T11:21:29;11.10;89.10
42755;DHT22;28407;51.830;5.684;2024-01-30T11:23:33;11.10;88.90
42755;DHT22;28407;51.830;5.684;2024-01-30T11:25:34;11.10;88.90
42755;DHT22;28407;51.830;5.684;2024-01-30T11:27:36;11.20;88.90
42755;DHT22;28407;51.830;5.684;2024-01-30T11:29:40;11.20;88.80
42755;DHT22;28407;51.830;5.684;2024-01-30T11:31:51;11.20;88.70
42755;DHT22;28407;51.830;5.684;2024-01-30T11:33:53;11.20;88.60
42755;DHT22;28407;51.830;5.684;2024-01-30T11:35:54;11.20;88.60
42755;DHT22;28407;51.830;5.684;2024-01-30T11:37:59;11.20;88.50
42755;DHT22;28407;51.830;5.684;2024-01-30T11:40:02;11.30;88.50
42755;DHT22;28407;51.830;5.684;2024-01-30T11:42:06;11.30;88.40
42755;DHT22;28407;51.830;5.684;2024-01-30T11:44:09;11.40;88.30
42755;DHT22;28407;51.830;5.684;2024-01-30T11:46:10;11.40;88.30
42755;DHT22;28407;51.830;5.684;2024-01-30T11:48:12;11.50;88.10
42755;DHT22;28407;51.830;5.684;2024-01-30T11:50:13;11.60;88.70
42755;DHT22;28407;51.830;5.684;2024-01-30T11:52:14;11.60;87.80
42755;DHT22;28407;51.830;5.684;2024-01-30T11:54:15;11.70;87.70
42755;DHT22;28407;51.830;5.684;2024-01-30T11:56:16;11.70;87.50
42755;DHT22;28407;51.830;5.684;2024-01-30T11:58:17;11.70;87.40
42755;DHT22;28407;51.830;5.684;2024-01-30T12:00:18;11.80;87.30
42755;DHT22;28407;51.830;5.684;2024-01-30T12:02:19;11.80;87.20
42755;DHT22;28407;51.830;5.684;2024-01-30T12:04:20;11.80;87.10
42755;DHT22;28407;51.830;5.684;2024-01-30T12:06:21;11.90;87.10
42755;DHT22;28407;51.830;5.684;2024-01-30T12:08:22;11.80;87.00
42755;DHT22;28407;51.830;5.684;2024-01-30T12:10:22;11.80;86.90
42755;DHT22;28407;51.830;5.684;2024-01-30T12:12:25;11.80;86.90
42755;DHT22;28407;51.830;5.684;2024-01-30T12:14:26;11.80;86.80
42755;DHT22;28407;51.830;5.684;2024-01-30T12:16:27;11.80;86.70
42755;DHT22;28407;51.830;5.684;2024-01-30T12:18:28;11.80;86.60
42755;DHT22;28407;51.830;5.684;2024-01-30T12:20:31;11.80;86.60
42755;DHT22;28407;51.830;5.684;2024-01-30T12:22:37;11.80;86.50
42755;DHT22;28407;51.830;5.684;2024-01-30T12:24:39;11.80;86.40
42755;DHT22;28407;51.830;5.684;2024-01-30T12:26:39;11.70;86.40
42755;DHT22;28407;51.830;5.684;2024-01-30T12:28:48;11.70;86.30
42755;DHT22;28407;51.830;5.684;2024-01-30T12:30:49;11.70;86.20
42755;DHT22;28407;51.830;5.684;2024-01-30T12:32:50;11.70;86.10
42755;DHT22;28407;51.830;5.684;2024-01-30T12:34:55;11.70;86.00
42755;DHT22;28407;51.830;5.684;2024-01-30T12:36:56;11.70;85.80
42755;DHT22;28407;51.830;5.684;2024-01-30T12:38:57;11.70;85.80
42755;DHT22;28407;51.830;5.684;2024-01-30T12:40:58;11.70;85.60
42755;DHT22;28407;51.830;5.684;2024-01-30T12:42:59;11.70;85.40
42755;DHT22;28407;51.830;5.684;2024-01-30T12:45:01;11.70;85.40
42755;DHT22;28407;51.830;5.684;2024-01-30T12:47:05;11.70;85.30
42755;DHT22;28407;51.830;5.684;2024-01-30T12:49:06;11.60;85.40
42755;DHT22;28407;51.830;5.684;2024-01-30T12:51:06;11.60;85.50
42755;DHT22;28407;51.830;5.684;2024-01-30T12:53:07;11.60;85.60
42755;DHT22;28407;51.830;5.684;2024-01-30T12:55:09;11.60;85.60
42755;DHT22;28407;51.830;5.684;2024-01-30T12:57:10;11.60;85.60
42755;DHT22;28407;51.830;5.684;2024-01-30T12:59:11;11.50;85.60